Station SVNM4 - South Haven Light, South Haven, MI Image indicating link to RSS feed of recent meteorological observations for station SVNM4


Conditions at SVNM4 as of
(9:10 pm EDT on 04/15/2024)
0110 GMT on 04/16/2024:
     

Click on the graph icon in the table below to see a time series plot of the last five days of that observation.

5-day plot - Wind Direction Wind Direction (WDIR): N ( 350 deg true )
5-day plot - Wind Speed Wind Speed (WSPD): 7 kts
5-day plot - Wind Gust Wind Gust (GST): 7 kts
5-day plot - Air Temperature Air Temperature (ATMP): 53.1 °F
5-day plot - Wind Chill Wind Chill (CHILL): 50.5 °F
5-day plot -  Wind Speed, Wind Gust and Atmospheric Pressure Combined plot of Wind Speed, Gust, and Air Pressure
Previous observations
TIME
(EDT)
5-day plot - Wind Direction
WDIR
 
5-day plot - Wind Speed
WSPD
kts
5-day plot - Wind Gust
GST
kts
5-day plot - Wave Height
WVHT
ft
5-day plot - Dominant Wave Period
DPD
sec
5-day plot - Average Wave Period
APD
sec
5-day plot - Mean Wave Direction
MWD
 
5-day plot - Atmospheric Pressure
PRES
in
5-day plot - Pressure Tendency
PTDY
in
5-day plot - Air Temperature
ATMP
°F
5-day plot - Water Temperature
WTMP
°F
5-day plot - Dew Point
DEWP
°F
5-day plot - Salinity
SAL
psu
5-day plot - Visibility
VIS
nmi
5-day plot - Tide (above MLLW)
TIDE
ft
2024-04-15 09:00 pm N 8 8------ 52.7-----
2024-04-15 08:50 pm N 9 9------ 52.3-----
2024-04-15 08:40 pm N 9 9------ 52.3-----
2024-04-15 08:30 pm N 9 10------ 53.2-----
2024-04-15 08:20 pm N 9 9------ 52.9-----
2024-04-15 08:10 pm N 6 7------ 53.8-----
2024-04-15 08:00 pm N 7 7------ 54.3-----
2024-04-15 07:40 pm N 7 8------ 55.6-----
2024-04-15 07:30 pm N 7 8------ 55.6-----
2024-04-15 07:20 pm N 7 8------ 56.7-----
2024-04-15 07:10 pm N 6 6------ 57.0-----
2024-04-15 07:00 pm N 6 6------ 56.8-----
2024-04-15 06:50 pm N 6 7------ 57.2-----
2024-04-15 06:40 pm N 7 8------ 57.4-----
2024-04-15 06:10 pm N 6 7------ 55.9-----
2024-04-15 05:10 pm N 8 9------ 52.2-----
2024-04-15 04:30 pm N 10 10------ 51.8-----
2024-04-15 04:20 pm N 10 12------ 51.3-----
2024-04-15 04:10 pm N 10 11------ 51.3-----
2024-04-15 04:00 pm N 10 12------ 51.3-----
2024-04-15 03:50 pm N 9 11------ 51.1-----
2024-04-15 02:00 pmNNW 12 14------ 49.1-----
2024-04-15 01:50 pmNNW 13 14------ 49.5-----
2024-04-15 01:40 pmNNW 12 14------ 50.0-----
2024-04-15 01:30 pmNNW 12 13------ 50.2-----
2024-04-15 01:20 pm NW 13 14------ 52.3-----
2024-04-15 01:10 pmNNW 5 7------ 54.0-----
2024-04-15 01:00 pmNNW 4 5------ 53.4-----
2024-04-15 12:50 pm NW 3 5------ 54.1-----
2024-04-15 12:40 pm N 4 4------ 54.0-----
2024-04-15 12:30 pmWSW 2 4------ 52.9-----
2024-04-15 12:20 pm- 0 1------ 54.0-----
2024-04-15 12:10 pmWSW 9 10------ 54.9-----
2024-04-15 12:00 pm W 8 8------ 52.7-----
2024-04-15 11:50 amWSW 8 8------ 55.2-----
2024-04-15 11:40 amWSW 7 7------ 59.5-----
2024-04-15 11:30 am W 8 9------ 55.0-----
2024-04-15 11:20 amWSW 4 5------ 62.1-----
2024-04-15 11:10 am NW 1 2------ 66.2-----
2024-04-15 11:00 am E 5 6------ 64.9-----
2024-04-15 10:50 am E 5 7------ 64.0-----
2024-04-15 10:40 amENE 6 7------ 63.7-----
2024-04-15 10:30 am E 8 9------ 63.0-----
2024-04-15 10:20 am E 7 8------ 62.4-----
2024-04-15 10:10 am E 7 8------ 61.7-----
2024-04-15 10:00 am E 9 10------ 61.2-----
2024-04-15 09:50 am E 8 9------ 60.6-----
2024-04-15 09:40 am E 8 10------ 59.9-----
2024-04-15 09:30 amENE 8 11------ 59.4-----
2024-04-15 09:20 am E 8 10------ 58.5-----
2024-04-15 09:10 amENE 10 12------ 57.7-----
2024-04-15 09:00 amENE 11 15------ 57.0-----
2024-04-15 08:50 am E 10 12------ 56.5-----
2024-04-15 08:40 amENE 10 12------ 55.9-----
2024-04-15 08:30 amENE 8 10------ 55.4-----
2024-04-15 08:20 amENE 9 11------ 54.9-----
2024-04-15 08:10 amENE 9 12------ 54.3-----
2024-04-15 08:00 amENE 10 13------ 53.4-----
2024-04-15 07:50 amENE 8 11------ 52.9-----
2024-04-15 07:40 amENE 9 11------ 52.7-----
2024-04-15 07:30 amENE 8 10------ 52.7-----
2024-04-15 07:20 amENE 9 12------ 52.9-----
2024-04-15 07:10 am NE 10 12------ 52.9-----
2024-04-15 07:00 am NE 10 13------ 53.1-----
2024-04-15 06:50 am NE 8 9------ 53.4-----
2024-04-15 06:40 am NE 9 13------ 53.6-----
2024-04-15 06:30 am NE 10 14------ 53.8-----
2024-04-15 06:20 am NE 12 16------ 53.8-----
2024-04-15 06:10 am NE 13 16------ 54.0-----
2024-04-15 06:00 amENE 12 15------ 53.8-----
2024-04-15 05:50 am NE 10 14------ 54.1-----
2024-04-15 05:40 am NE 10 13------ 54.3-----
2024-04-15 05:30 am NE 12 15------ 54.5-----
2024-04-15 05:20 am NE 13 16------ 54.5-----
2024-04-15 05:10 am NE 11 14------ 54.5-----
2024-04-15 05:00 amENE 13 17------ 54.9-----
2024-04-15 04:50 amENE 13 15------ 54.9-----
2024-04-15 04:40 am NE 15 17------ 55.2-----
2024-04-15 04:30 am NE 12 14------ 55.2-----
2024-04-15 04:20 am NE 12 16------ 55.2-----
2024-04-15 04:10 am NE 13 16------ 55.4-----
2024-04-15 04:00 am NE 14 20------ 55.4-----
2024-04-15 03:50 am NE 13 18------ 55.4-----
2024-04-15 03:40 am NE 13 16------ 55.6-----
2024-04-15 03:30 amNNE 15 19------ 55.6-----
2024-04-15 03:20 amNNE 13 17------ 55.2-----
2024-04-15 03:10 am N 6 9------ 50.4-----
2024-04-15 03:00 amNNW 7 8------ 47.7-----
2024-04-15 02:50 amNNW 7 8------ 48.2-----
2024-04-15 02:40 amNNW 5 6------ 49.5-----
2024-04-15 02:30 am N 7 8------ 49.5-----
2024-04-15 02:20 am N 11 12------ 49.3-----
2024-04-15 02:10 am N 9 10------ 49.3-----
2024-04-15 02:00 am N 8 9------ 49.1-----
2024-04-15 01:50 am N 8 10------ 48.7-----
2024-04-15 01:40 amNNW 7 8------ 48.9-----
2024-04-15 01:30 amNNW 7 8------ 49.3-----
2024-04-15 01:20 am N 10 12------ 50.0-----
2024-04-15 01:10 am N 11 12------ 49.6-----
2024-04-15 01:00 am NW 12 13------ 50.7-----
2024-04-15 12:50 amNNW 6 8------ 52.3-----
2024-04-15 12:40 am N 4 4------ 53.2-----
2024-04-15 12:30 am N 4 4------ 54.7-----
2024-04-15 12:20 amNNE 3 3------ 55.8-----
2024-04-15 12:10 amNNE 2 3------ 56.7-----
2024-04-15 12:00 amNNE 2 3------ 55.9-----
2024-04-14 11:50 pmNNE 2 3------ 57.6-----
2024-04-14 11:40 pm NE 1 1------ 59.2-----
2024-04-14 11:30 pm- 0 0------ 57.9-----
2024-04-14 11:20 pm E 1 2------ 57.4-----
2024-04-14 11:10 pm NE 3 3------ 58.3-----
2024-04-14 11:00 pmNNE 3 3------ 58.5-----
2024-04-14 10:50 pm NE 2 2------ 58.1-----
2024-04-14 10:40 pm NE 1 2------ 59.2-----
2024-04-14 10:30 pm E 1 1------ 59.9-----
2024-04-14 10:20 pmNNE 3 3------ 59.4-----
2024-04-14 10:10 pm NE 3 3------ 59.0-----
2024-04-14 10:00 pmNNE 3 4------ 59.7-----
2024-04-14 09:50 pm NE 2 2------ 62.6-----
2024-04-14 09:40 pmNNE 3 4------ 60.4-----
2024-04-14 09:30 pm NE 2 3------ 59.5-----
2024-04-14 09:20 pmNNE 3 3------ 55.2-----
2024-04-14 09:10 pm N 5 5------ 54.1-----
2024-04-14 09:00 pm N 4 4------ 54.0-----
2024-04-14 08:50 pm N 3 3------ 54.9-----